createdAt,value
2019-05-20T00:00:27.482Z,12.26
2019-05-20T00:01:36.477Z,12.26
2019-05-20T00:02:28.500Z,12.26
2019-05-20T00:03:27.482Z,12.26
2019-05-20T00:04:27.454Z,12.17
2019-05-20T00:05:44.020Z,12.25
2019-05-20T00:06:27.413Z,12.29
2019-05-20T00:07:28.430Z,12.25
2019-05-20T00:08:27.391Z,12.25
2019-05-20T00:09:27.451Z,12.20
2019-05-20T00:10:27.370Z,12.12
2019-05-20T00:11:27.432Z,12.28
2019-05-20T00:12:27.350Z,12.29
2019-05-20T00:13:27.447Z,12.20
2019-05-20T00:14:27.346Z,12.17
2019-05-20T00:15:27.755Z,12.12
2019-05-20T00:16:27.321Z,12.05
2019-05-20T00:17:27.382Z,12.05
2019-05-20T00:18:27.281Z,12.05
2019-05-20T00:19:27.319Z,12.05
2019-05-20T00:20:27.263Z,12.05
2019-05-20T00:21:27.300Z,11.99
2019-05-20T00:22:27.234Z,11.95
2019-05-20T00:23:27.312Z,11.97
2019-05-20T00:24:27.252Z,11.91
2019-05-20T00:25:27.225Z,11.93
2019-05-20T00:26:27.197Z,11.86
2019-05-20T00:27:27.236Z,11.85
2019-05-20T00:28:27.178Z,11.86
2019-05-20T00:29:27.253Z,11.95
2019-05-20T00:30:27.171Z,11.88
2019-05-20T00:31:27.191Z,12.02
2019-05-20T00:32:40.291Z,11.99
2019-05-20T00:33:28.111Z,11.96
2019-05-20T00:34:35.175Z,11.96
2019-05-20T00:35:28.111Z,12.07
2019-05-20T00:36:27.229Z,11.99
2019-05-20T00:37:27.077Z,11.97
2019-05-20T00:38:27.108Z,11.85
2019-05-20T00:39:27.049Z,11.88
2019-05-20T00:40:27.158Z,11.86
2019-05-20T00:41:27.028Z,11.81
2019-05-20T00:42:27.034Z,11.85
2019-05-20T00:43:27.009Z,11.88
2019-05-20T00:44:27.001Z,11.81
2019-05-20T00:45:27.007Z,11.93
2019-05-20T00:47:35.800Z,11.86
2019-05-20T00:48:35.719Z,11.81
2019-05-20T00:49:35.789Z,11.74
2019-05-20T00:50:35.710Z,11.62
2019-05-20T00:51:35.796Z,11.63
2019-05-20T00:52:35.681Z,11.58
2019-05-20T00:53:35.716Z,11.56
2019-05-20T00:54:35.659Z,11.56
2019-05-20T00:55:35.754Z,11.56
2019-05-20T00:56:35.633Z,11.55
2019-05-20T00:57:35.642Z,11.55
2019-05-20T00:58:35.611Z,11.53
2019-05-20T00:59:35.656Z,11.56
2019-05-20T01:00:35.608Z,11.53
2019-05-20T01:01:35.671Z,11.51
2019-05-20T01:02:35.564Z,11.48
2019-05-20T01:03:35.571Z,11.48
2019-05-20T01:04:35.571Z,11.41
2019-05-20T01:05:35.645Z,11.51
2019-05-20T01:06:35.530Z,11.37
2019-05-20T01:07:35.602Z,11.49
2019-05-20T01:08:35.517Z,11.53
2019-05-20T01:09:35.511Z,11.53
2019-05-20T01:10:35.507Z,11.40
2019-05-20T01:11:37.584Z,11.40
2019-05-20T01:12:35.458Z,11.35
2019-05-20T01:13:36.458Z,11.53
2019-05-20T01:14:35.437Z,11.52
2019-05-20T01:15:35.480Z,11.49
2019-05-20T01:16:35.411Z,11.55
2019-05-20T01:17:51.953Z,11.48
2019-05-20T01:18:35.392Z,11.52
2019-05-20T01:19:35.482Z,11.53
2019-05-20T01:20:35.397Z,11.53
2019-05-20T01:21:35.387Z,11.48
2019-05-20T01:22:35.352Z,11.56
2019-05-20T01:23:35.402Z,11.49
2019-05-20T01:24:35.326Z,11.51
2019-05-20T01:25:35.347Z,11.55
2019-05-20T01:26:35.299Z,11.44
2019-05-20T01:27:35.329Z,11.34
2019-05-20T01:28:35.286Z,11.33
2019-05-20T01:29:35.341Z,11.27
2019-05-20T01:30:35.271Z,11.30
2019-05-20T01:31:35.353Z,11.37
2019-05-20T01:32:35.236Z,11.37
2019-05-20T01:33:35.268Z,11.38
2019-05-20T01:34:35.211Z,11.40
2019-05-20T01:35:35.317Z,11.27
2019-05-20T01:36:35.192Z,11.40
2019-05-20T01:37:35.191Z,11.41
2019-05-20T01:38:35.171Z,11.48
2019-05-20T01:39:35.213Z,11.45
2019-05-20T01:40:35.223Z,11.55
2019-05-20T01:41:35.217Z,11.52
2019-05-20T01:42:35.124Z,11.37
2019-05-20T01:43:35.128Z,11.33
2019-05-20T01:44:35.109Z,11.25
2019-05-20T01:45:35.180Z,11.23
2019-05-20T01:46:35.096Z,11.13
2019-05-20T01:47:35.217Z,11.10
2019-05-20T01:48:35.065Z,11.10
2019-05-20T01:49:35.075Z,11.12
2019-05-20T01:50:35.057Z,11.15
2019-05-20T01:51:35.081Z,11.25
2019-05-20T01:52:35.024Z,11.25
2019-05-20T01:53:35.102Z,11.05
2019-05-20T01:54:34.994Z,11.20
2019-05-20T01:55:40.472Z,11.16
2019-05-20T01:56:34.985Z,11.04
2019-05-20T01:57:37.081Z,11.08
2019-05-20T01:58:34.958Z,11.10
2019-05-20T01:59:35.959Z,11.12
2019-05-20T02:00:34.939Z,11.15
2019-05-20T02:01:34.949Z,11.19
2019-05-20T02:02:34.904Z,11.08
2019-05-20T02:03:34.963Z,11.08
2019-05-20T02:04:34.896Z,11.15
2019-05-20T02:05:34.910Z,11.10
2019-05-20T02:06:34.859Z,11.13
2019-05-20T02:07:34.888Z,11.12
2019-05-20T02:08:34.841Z,11.08
2019-05-20T02:09:34.899Z,11.08
2019-05-20T02:10:34.840Z,11.10
2019-05-20T02:11:34.912Z,11.12
2019-05-20T02:12:34.795Z,11.07
2019-05-20T02:13:34.828Z,11.04
2019-05-20T02:14:34.775Z,11.02
2019-05-20T02:15:34.879Z,11.00
2019-05-20T02:16:34.752Z,10.97
2019-05-20T02:17:34.851Z,10.94
2019-05-20T02:18:34.735Z,10.94
2019-05-20T02:19:34.762Z,10.97
2019-05-20T02:20:34.709Z,11.07
2019-05-20T02:21:34.813Z,11.02
2019-05-20T02:22:34.683Z,11.02
2019-05-20T02:23:34.686Z,10.90
2019-05-20T02:24:34.668Z,10.94
2019-05-20T02:25:34.701Z,11.10
2019-05-20T02:26:34.655Z,11.10
2019-05-20T02:27:34.713Z,11.12
2019-05-20T02:28:34.619Z,11.00
2019-05-20T02:29:34.626Z,11.10
2019-05-20T02:30:34.610Z,11.07
2019-05-20T02:31:34.680Z,11.05
2019-05-20T02:32:34.580Z,11.00
2019-05-20T02:33:50.009Z,11.08
2019-05-20T02:34:35.552Z,11.08
2019-05-20T02:35:34.572Z,11.18
2019-05-20T02:36:34.550Z,11.15
2019-05-20T02:37:34.579Z,11.26
2019-05-20T02:38:34.507Z,11.23
2019-05-20T02:39:34.593Z,11.23
2019-05-20T02:40:34.488Z,11.16
2019-05-20T02:41:34.500Z,11.12
2019-05-20T02:42:34.465Z,11.10
2019-05-20T02:44:10.466Z,11.22
2019-05-20T02:44:34.442Z,11.20
2019-05-20T02:45:34.432Z,11.25
2019-05-20T02:46:34.473Z,11.30
2019-05-20T02:47:34.421Z,11.30
2019-05-20T02:48:34.453Z,11.40
2019-05-20T02:49:34.392Z,11.51
2019-05-20T02:50:34.463Z,11.52
2019-05-20T02:51:34.385Z,11.63
2019-05-20T02:52:34.374Z,11.65
2019-05-20T02:53:34.348Z,11.62
2019-05-20T02:54:34.393Z,11.59
2019-05-20T02:55:34.324Z,11.53
2019-05-20T02:56:34.434Z,11.44
2019-05-20T02:57:34.298Z,11.55
2019-05-20T02:58:34.321Z,11.49
2019-05-20T02:59:34.277Z,11.48
2019-05-20T03:00:34.328Z,11.55
2019-05-20T03:01:34.290Z,11.56
2019-05-20T03:02:34.341Z,11.48
2019-05-20T03:03:34.231Z,11.70
2019-05-20T03:04:34.252Z,11.65
2019-05-20T03:05:34.208Z,11.65
2019-05-20T03:06:34.298Z,11.58
2019-05-20T03:07:34.186Z,11.68
2019-05-20T03:08:34.278Z,11.60
2019-05-20T03:09:34.170Z,11.56
2019-05-20T03:10:34.196Z,11.60
2019-05-20T03:11:34.165Z,11.71
2019-05-20T03:12:34.205Z,11.70
2019-05-20T03:13:34.122Z,11.68
2019-05-20T03:14:34.218Z,11.70
2019-05-20T03:15:34.103Z,11.74
2019-05-20T03:16:34.160Z,11.78
2019-05-20T03:17:34.080Z,11.77
2019-05-20T03:18:34.145Z,11.86
2019-05-20T03:19:34.053Z,11.95
2019-05-20T03:20:34.161Z,12.00
2019-05-20T03:21:34.061Z,12.14
2019-05-20T03:22:34.072Z,12.03
2019-05-20T03:23:34.010Z,12.02
2019-05-20T03:24:34.089Z,12.08
2019-05-20T03:25:33.992Z,12.05
2019-05-20T03:26:36.074Z,12.14
2019-05-20T03:27:33.971Z,12.21
2019-05-20T03:28:48.960Z,12.30
2019-05-20T03:29:33.956Z,12.35
2019-05-20T03:30:35.987Z,12.26
2019-05-20T03:31:33.937Z,12.39
2019-05-20T03:32:34.029Z,12.40
2019-05-20T03:33:33.913Z,12.47
2019-05-20T03:34:58.491Z,12.47
2019-05-20T03:35:34.986Z,12.48
2019-05-20T03:36:33.992Z,12.47
2019-05-20T03:37:33.857Z,12.50
2019-05-20T03:38:33.879Z,12.53
2019-05-20T03:39:33.848Z,12.65
2019-05-20T03:40:33.884Z,12.63
2019-05-20T03:41:33.856Z,12.62
2019-05-20T03:42:33.901Z,12.63
2019-05-20T03:43:33.792Z,12.70
2019-05-20T03:44:33.812Z,12.70
2019-05-20T03:45:33.773Z,12.69
2019-05-20T03:46:33.826Z,12.75
2019-05-20T03:47:33.765Z,12.70
2019-05-20T03:48:33.837Z,12.72
2019-05-20T03:49:33.730Z,12.76
2019-05-20T03:50:33.748Z,12.75
2019-05-20T03:51:33.708Z,12.83
2019-05-20T03:52:33.808Z,12.75
2019-05-20T03:53:33.684Z,12.86
2019-05-20T03:54:33.774Z,12.80
2019-05-20T03:55:33.669Z,12.83
2019-05-20T03:56:33.687Z,12.80
2019-05-20T03:57:33.668Z,12.86
2019-05-20T03:58:33.635Z,12.88
2019-05-20T03:59:33.625Z,12.84
2019-05-20T04:00:33.721Z,12.91
2019-05-20T04:01:33.600Z,13.01
2019-05-20T04:02:33.658Z,12.93
2019-05-20T04:03:33.577Z,12.95
2019-05-20T04:04:33.640Z,12.99
2019-05-20T04:05:33.554Z,12.99
2019-05-20T04:06:33.656Z,13.08
2019-05-20T04:07:33.549Z,12.94
2019-05-20T04:08:33.566Z,13.08
2019-05-20T04:09:33.513Z,13.03
2019-05-20T04:10:33.578Z,13.06
2019-05-20T04:11:33.491Z,13.12
2019-05-20T04:12:34.545Z,13.11
2019-05-20T04:13:34.922Z,13.09
2019-05-20T04:14:34.530Z,13.12
2019-05-20T04:15:33.445Z,13.13
2019-05-20T04:16:35.475Z,13.13
2019-05-20T04:17:33.451Z,13.20
2019-05-20T04:18:33.430Z,13.21
2019-05-20T04:19:33.410Z,13.21
2019-05-20T04:20:33.489Z,13.27
2019-05-20T04:21:33.387Z,13.19
2019-05-20T04:22:33.490Z,13.23
2019-05-20T04:23:33.391Z,13.27
2019-05-20T04:24:33.373Z,13.17
2019-05-20T04:25:33.340Z,13.37
2019-05-20T04:26:33.383Z,13.31
2019-05-20T04:27:33.330Z,13.31
2019-05-20T04:28:33.404Z,13.42
2019-05-20T04:29:33.296Z,13.37
2019-05-20T04:30:33.317Z,13.39
2019-05-20T04:31:33.277Z,13.42
2019-05-20T04:32:33.359Z,13.45
2019-05-20T04:33:33.264Z,13.42
2019-05-20T04:34:33.249Z,13.49
2019-05-20T04:35:33.229Z,13.49
2019-05-20T04:36:33.247Z,13.47
2019-05-20T04:37:33.223Z,13.46
2019-05-20T04:38:33.263Z,13.42
2019-05-20T04:39:33.183Z,13.43
2019-05-20T04:40:33.276Z,13.40
2019-05-20T04:41:35.629Z,13.39
2019-05-20T04:42:33.215Z,13.46
2019-05-20T04:43:33.137Z,13.42
2019-05-20T04:44:33.201Z,13.45
2019-05-20T04:45:33.114Z,13.39
2019-05-20T04:46:33.211Z,13.45
2019-05-20T04:47:33.121Z,13.47
2019-05-20T04:48:33.122Z,13.47
2019-05-20T04:49:33.073Z,13.45
2019-05-20T04:50:33.139Z,13.47
2019-05-20T04:51:33.049Z,13.46
2019-05-20T04:52:33.078Z,13.49
2019-05-20T04:53:33.046Z,13.50
2019-05-20T04:54:33.064Z,13.49
2019-05-20T04:55:33.008Z,13.55
2019-05-20T04:56:33.075Z,13.54
2019-05-20T04:57:33.011Z,13.58
2019-05-20T04:58:48.961Z,13.62
2019-05-20T04:59:32.974Z,13.68
2019-05-20T05:00:39.964Z,13.64
2019-05-20T05:01:32.942Z,13.67
2019-05-20T05:02:33.969Z,13.67
2019-05-20T05:03:32.921Z,13.61
2019-05-20T05:04:32.926Z,13.70
2019-05-20T05:05:37.503Z,13.58
2019-05-20T05:06:33.962Z,13.70
2019-05-20T05:07:32.890Z,13.71
2019-05-20T05:08:32.952Z,13.73
2019-05-20T05:09:32.856Z,13.70
2019-05-20T05:10:32.863Z,13.73
2019-05-20T05:11:32.837Z,13.71
2019-05-20T05:12:32.908Z,13.71
2019-05-20T05:13:32.809Z,13.75
2019-05-20T05:14:32.899Z,13.73
2019-05-20T05:15:32.792Z,13.83
2019-05-20T05:16:32.806Z,13.78
2019-05-20T05:17:32.787Z,13.82
2019-05-20T05:18:32.816Z,13.79
2019-05-20T05:19:32.742Z,13.89
2019-05-20T05:20:32.830Z,13.93
2019-05-20T05:21:32.730Z,13.98
2019-05-20T05:22:32.772Z,14.00
2019-05-20T05:23:32.699Z,14.01
2019-05-20T05:24:32.755Z,14.11
2019-05-20T05:25:32.676Z,14.11
2019-05-20T05:26:32.768Z,14.11
2019-05-20T05:27:32.683Z,14.07
2019-05-20T05:28:32.680Z,14.08
2019-05-20T05:29:32.632Z,14.05
2019-05-20T05:30:32.701Z,14.01
2019-05-20T05:31:32.614Z,14.18
2019-05-20T05:32:32.712Z,14.25
2019-05-20T05:33:32.602Z,14.33
2019-05-20T05:34:32.618Z,14.30
2019-05-20T05:35:32.566Z,14.23
2019-05-20T05:36:32.635Z,14.33
2019-05-20T05:37:32.545Z,14.28
2019-05-20T05:38:32.578Z,14.37
2019-05-20T05:39:32.519Z,14.34
2019-05-20T05:40:32.568Z,14.41
2019-05-20T05:41:32.495Z,14.37
2019-05-20T05:42:32.585Z,14.38
2019-05-20T05:43:32.492Z,14.40
2019-05-20T05:44:32.488Z,14.41
2019-05-20T05:45:32.463Z,14.49
2019-05-20T05:46:32.502Z,14.38
2019-05-20T05:47:32.429Z,14.45
2019-05-20T05:48:32.546Z,14.44
2019-05-20T05:49:32.411Z,14.55
2019-05-20T05:50:32.427Z,14.40
2019-05-20T05:51:32.387Z,14.33
2019-05-20T05:52:32.441Z,14.37
2019-05-20T05:53:32.379Z,14.44
2019-05-20T05:54:32.462Z,14.37
2019-05-20T05:55:32.343Z,14.33
2019-05-20T05:56:32.365Z,14.41
2019-05-20T05:57:32.325Z,14.43
2019-05-20T05:58:32.414Z,14.51
2019-05-20T05:59:32.303Z,14.44
2019-05-20T06:00:32.394Z,14.55
2019-05-20T06:01:32.281Z,14.51
2019-05-20T06:02:32.311Z,14.63
2019-05-20T06:03:32.273Z,14.63
2019-05-20T06:04:32.322Z,14.66
2019-05-20T06:05:32.233Z,14.63
2019-05-20T06:06:32.334Z,14.68
2019-05-20T06:07:32.221Z,14.68
2019-05-20T06:08:32.275Z,14.85
2019-05-20T06:09:32.195Z,14.86
2019-05-20T06:10:35.535Z,14.89
2019-05-20T06:11:32.166Z,14.77
2019-05-20T06:12:32.266Z,14.86
2019-05-20T06:13:32.163Z,14.89
2019-05-20T06:14:32.181Z,15.11
2019-05-20T06:15:32.123Z,15.07
2019-05-20T06:16:36.532Z,15.04
2019-05-20T06:17:32.105Z,15.05
2019-05-20T06:18:32.143Z,15.04
2019-05-20T06:19:32.083Z,15.04
2019-05-20T06:20:32.074Z,15.15
2019-05-20T06:21:32.058Z,15.23
2019-05-20T06:22:32.145Z,15.27
2019-05-20T06:23:32.051Z,15.19
2019-05-20T06:24:32.047Z,15.29
2019-05-20T06:25:32.019Z,15.22
2019-05-20T06:26:32.054Z,15.26
2019-05-20T06:27:31.992Z,15.35
2019-05-20T06:28:35.483Z,15.23
2019-05-20T06:29:31.972Z,15.15
2019-05-20T06:30:31.984Z,15.08
2019-05-20T06:31:31.985Z,15.17
2019-05-20T06:32:39.468Z,15.18
2019-05-20T06:33:31.946Z,15.26
2019-05-20T06:34:33.978Z,15.27
2019-05-20T06:35:31.909Z,15.30
2019-05-20T06:36:31.920Z,15.32
2019-05-20T06:37:31.915Z,15.08
2019-05-20T06:38:31.965Z,15.10
2019-05-20T06:39:31.859Z,15.17
2019-05-20T06:40:31.946Z,15.17
2019-05-20T06:41:31.839Z,15.23
2019-05-20T06:42:31.880Z,15.22
2019-05-20T06:43:31.892Z,15.25
2019-05-20T06:44:31.873Z,15.23
2019-05-20T06:45:31.797Z,15.14
2019-05-20T06:46:31.886Z,15.25
2019-05-20T06:47:31.772Z,15.19
2019-05-20T06:48:31.827Z,15.15
2019-05-20T06:49:31.750Z,15.17
2019-05-20T06:50:31.852Z,15.29
2019-05-20T06:51:31.732Z,15.27
2019-05-20T06:52:36.025Z,15.22
2019-05-20T06:53:31.711Z,15.26
2019-05-20T06:54:31.766Z,15.39
2019-05-20T06:55:31.688Z,15.33
2019-05-20T06:56:31.748Z,15.47
2019-05-20T06:57:31.664Z,15.52
2019-05-20T06:58:31.796Z,15.57
2019-05-20T06:59:31.659Z,15.52
2019-05-20T07:00:31.679Z,15.52
2019-05-20T07:01:31.624Z,15.62
2019-05-20T07:02:31.687Z,15.66
2019-05-20T07:03:31.597Z,15.67
2019-05-20T07:04:31.632Z,15.62
2019-05-20T07:05:31.578Z,15.55
2019-05-20T07:06:45.600Z,15.37
2019-05-20T07:07:32.550Z,15.19
2019-05-20T07:08:31.661Z,15.12
2019-05-20T07:09:31.545Z,15.23
2019-05-20T07:10:31.537Z,15.33
2019-05-20T07:11:31.515Z,15.39
2019-05-20T07:12:40.974Z,15.41
2019-05-20T07:13:32.513Z,15.48
2019-05-20T07:14:36.007Z,15.51
2019-05-20T07:15:31.469Z,15.59
2019-05-20T07:16:31.475Z,15.62
2019-05-20T07:17:31.753Z,15.63
2019-05-20T07:18:47.989Z,15.78
2019-05-20T07:19:31.441Z,15.78
2019-05-20T07:20:32.424Z,15.76
2019-05-20T07:21:31.401Z,15.96
2019-05-20T07:22:31.415Z,15.92
2019-05-20T07:23:31.376Z,15.92
2019-05-20T07:24:31.459Z,16.02
2019-05-20T07:25:31.374Z,16.05
2019-05-20T07:26:31.451Z,16.17
2019-05-20T07:27:31.331Z,16.24
2019-05-20T07:28:31.353Z,16.39
2019-05-20T07:29:31.336Z,16.32
2019-05-20T07:30:31.366Z,16.29
2019-05-20T07:31:31.294Z,16.10
2019-05-20T07:32:31.387Z,15.94
2019-05-20T07:33:31.267Z,15.84
2019-05-20T07:34:31.332Z,15.80
2019-05-20T07:35:31.510Z,15.63
2019-05-20T07:36:31.306Z,15.76
2019-05-20T07:37:31.238Z,15.83
2019-05-20T07:38:31.319Z,16.02
2019-05-20T07:39:31.214Z,15.98
2019-05-20T07:40:31.230Z,15.76
2019-05-20T07:41:31.178Z,15.63
2019-05-20T07:42:31.245Z,15.78
2019-05-20T07:43:31.157Z,15.85
2019-05-20T07:44:31.201Z,15.96
2019-05-20T07:45:31.148Z,16.12
2019-05-20T07:46:31.169Z,16.09
2019-05-20T07:47:31.111Z,16.12
2019-05-20T07:48:32.302Z,16.18
2019-05-20T07:49:31.106Z,16.09
2019-05-20T07:50:31.094Z,16.18
2019-05-20T07:51:31.073Z,16.12
2019-05-20T07:52:31.107Z,15.99
2019-05-20T07:53:31.067Z,15.92
2019-05-20T07:54:31.160Z,15.85
2019-05-20T07:55:31.024Z,15.78
2019-05-20T07:56:31.038Z,16.02
2019-05-20T07:57:30.999Z,16.08
2019-05-20T07:58:33.805Z,16.16
2019-05-20T07:59:30.977Z,16.41
2019-05-20T08:00:32.021Z,16.49
2019-05-20T08:01:30.958Z,16.66
2019-05-20T08:02:30.974Z,16.68
2019-05-20T08:03:30.936Z,16.73
2019-05-20T08:04:30.998Z,16.77
2019-05-20T08:05:30.926Z,16.87
2019-05-20T08:06:31.974Z,17.10
2019-05-20T08:07:50.364Z,17.10
2019-05-20T08:08:31.880Z,17.05
2019-05-20T08:09:30.917Z,16.92
2019-05-20T08:10:30.869Z,16.62
2019-05-20T08:11:30.931Z,16.68
2019-05-20T08:12:30.836Z,16.68
2019-05-20T08:13:30.842Z,16.80
2019-05-20T08:14:30.832Z,16.91
2019-05-20T08:15:30.888Z,16.83
2019-05-20T08:16:30.789Z,16.73
2019-05-20T08:17:30.870Z,16.68
2019-05-20T08:18:30.772Z,16.59
2019-05-20T08:19:30.801Z,16.80
2019-05-20T08:20:30.772Z,16.92
2019-05-20T08:21:30.800Z,16.91
2019-05-20T08:22:30.728Z,17.12
2019-05-20T08:23:30.808Z,17.19
2019-05-20T08:24:30.703Z,17.31
2019-05-20T08:25:30.751Z,17.52
2019-05-20T08:26:30.760Z,17.63
2019-05-20T08:27:30.733Z,17.66
2019-05-20T08:28:30.679Z,17.53
2019-05-20T08:29:30.747Z,17.39
2019-05-20T08:30:30.655Z,17.24
2019-05-20T08:31:30.692Z,17.38
2019-05-20T08:32:30.678Z,17.42
2019-05-20T08:33:30.672Z,17.44
2019-05-20T08:34:30.966Z,17.52
2019-05-20T08:35:30.619Z,17.49
2019-05-20T08:36:30.578Z,17.59
2019-05-20T08:37:44.388Z,17.72
2019-05-20T08:38:31.559Z,17.65
2019-05-20T08:39:30.611Z,17.75
2019-05-20T08:40:30.550Z,17.56
2019-05-20T08:41:30.627Z,17.68
2019-05-20T08:42:30.512Z,17.59
2019-05-20T08:43:45.488Z,17.68
2019-05-20T08:44:30.670Z,17.78
2019-05-20T08:45:36.017Z,17.72
2019-05-20T08:46:30.466Z,17.39
2019-05-20T08:47:31.486Z,17.16
2019-05-20T08:48:30.445Z,17.17
2019-05-20T08:49:30.628Z,17.30
2019-05-20T08:50:30.437Z,17.57
2019-05-20T08:51:30.488Z,17.75
2019-05-20T08:52:30.424Z,17.82
2019-05-20T08:53:30.503Z,17.91
2019-05-20T08:54:30.396Z,18.21
2019-05-20T08:55:30.455Z,18.19
2019-05-20T08:56:30.364Z,18.33
2019-05-20T08:57:30.435Z,18.51
2019-05-20T08:58:30.338Z,18.49
2019-05-20T08:59:30.351Z,18.48
2019-05-20T09:00:30.340Z,18.43
2019-05-20T09:01:30.352Z,18.30
2019-05-20T09:02:30.302Z,18.33
2019-05-20T09:03:30.788Z,18.49
2019-05-20T09:04:30.275Z,18.43
2019-05-20T09:05:30.309Z,18.55
2019-05-20T09:06:30.278Z,18.60
2019-05-20T09:07:30.291Z,18.71
2019-05-20T09:08:30.243Z,18.82
2019-05-20T09:09:30.363Z,18.94
2019-05-20T09:10:30.294Z,19.01
2019-05-20T09:11:30.218Z,19.08
2019-05-20T09:12:30.191Z,19.00
2019-05-20T09:13:30.236Z,19.05
2019-05-20T09:14:30.175Z,19.07
2019-05-20T09:15:30.331Z,19.08
2019-05-20T09:16:30.213Z,19.16
2019-05-20T09:17:30.155Z,19.22
2019-05-20T09:18:30.123Z,19.16
2019-05-20T09:19:30.343Z,19.08
2019-05-20T09:20:30.101Z,19.16
2019-05-20T09:21:30.112Z,18.96
2019-05-20T09:22:30.124Z,18.94
2019-05-20T09:23:30.098Z,19.09
2019-05-20T09:24:30.119Z,19.23
2019-05-20T09:25:30.114Z,19.24
2019-05-20T09:26:30.047Z,19.20
2019-05-20T09:27:30.121Z,19.04
2019-05-20T09:28:30.010Z,18.91
2019-05-20T09:29:38.171Z,18.97
2019-05-20T09:30:30.060Z,18.91
2019-05-20T09:31:31.009Z,19.20
2019-05-20T09:32:29.958Z,19.41
2019-05-20T09:33:31.115Z,19.53
2019-05-20T09:34:29.938Z,19.48
2019-05-20T09:35:30.030Z,19.39
2019-05-20T09:36:29.929Z,19.57
2019-05-20T09:37:29.986Z,19.57
2019-05-20T09:38:29.913Z,19.47
2019-05-20T09:39:29.897Z,19.56
2019-05-20T09:40:29.875Z,19.64
2019-05-20T09:41:29.945Z,19.64
2019-05-20T09:42:29.874Z,19.85
2019-05-20T09:43:29.926Z,19.97
2019-05-20T09:44:29.845Z,19.99
2019-05-20T09:45:29.840Z,19.85
2019-05-20T09:46:29.860Z,19.96
2019-05-20T09:47:29.861Z,20.11
2019-05-20T09:48:29.794Z,20.22
2019-05-20T09:49:29.878Z,20.33
2019-05-20T09:50:29.763Z,20.39
2019-05-20T09:51:29.807Z,20.60
2019-05-20T09:52:29.736Z,20.74
2019-05-20T09:53:29.791Z,21.04
2019-05-20T09:54:29.729Z,21.10
2019-05-20T09:55:29.821Z,21.22
2019-05-20T09:56:29.712Z,20.98
2019-05-20T09:57:29.717Z,21.28
2019-05-20T09:58:29.679Z,21.33
2019-05-20T09:59:42.513Z,21.59
2019-05-20T10:00:30.650Z,21.77
2019-05-20T10:01:29.759Z,21.83
2019-05-20T10:02:35.179Z,21.80
2019-05-20T10:03:30.618Z,21.97
2019-05-20T10:04:29.663Z,22.15
2019-05-20T10:05:29.598Z,22.41
2019-05-20T10:06:29.706Z,22.78
2019-05-20T10:07:29.580Z,22.98
2019-05-20T10:08:37.992Z,23.23
2019-05-20T10:09:30.553Z,23.52
2019-05-20T10:10:29.597Z,24.28
2019-05-20T10:11:29.548Z,24.81
2019-05-20T10:12:45.624Z,25.00
2019-05-20T10:13:31.876Z,25.09
2019-05-20T10:14:37.519Z,23.99
2019-05-20T10:15:29.492Z,23.14
2019-05-20T10:16:31.522Z,22.92
2019-05-20T10:17:29.466Z,23.20
2019-05-20T10:18:37.503Z,24.13
2019-05-20T10:19:30.459Z,24.78
2019-05-20T10:20:29.485Z,25.06
2019-05-20T10:21:29.451Z,25.62
2019-05-20T10:22:29.475Z,25.83
2019-05-20T10:23:29.410Z,26.31
2019-05-20T10:24:29.488Z,26.33
2019-05-20T10:25:29.470Z,26.49
2019-05-20T10:26:29.431Z,26.81
2019-05-20T10:27:29.367Z,26.61
2019-05-20T10:28:29.413Z,26.30
2019-05-20T10:29:29.342Z,26.61
2019-05-20T10:30:29.426Z,26.61
2019-05-20T10:31:29.354Z,26.01
2019-05-20T10:32:29.372Z,25.93
2019-05-20T10:33:29.313Z,25.48
2019-05-20T10:34:29.351Z,25.83
2019-05-20T10:35:29.275Z,26.06
2019-05-20T10:36:29.420Z,26.53
2019-05-20T10:37:29.277Z,26.97
2019-05-20T10:38:29.289Z,27.18
2019-05-20T10:39:29.236Z,27.38
2019-05-20T10:40:29.303Z,27.45
2019-05-20T10:41:29.756Z,26.68
2019-05-20T10:42:29.233Z,25.68
2019-05-20T10:43:29.197Z,25.39
2019-05-20T10:44:29.221Z,25.63
2019-05-20T10:45:29.187Z,26.06
2019-05-20T10:46:29.231Z,26.19
2019-05-20T10:47:29.166Z,26.19
2019-05-20T10:48:29.249Z,25.99
2019-05-20T10:49:29.137Z,26.07
2019-05-20T10:50:29.167Z,26.29
2019-05-20T10:51:29.108Z,27.25
2019-05-20T10:52:29.210Z,27.03
2019-05-20T10:53:29.088Z,27.20
2019-05-20T10:54:29.185Z,27.79
2019-05-20T10:55:29.074Z,27.97
2019-05-20T10:56:29.106Z,27.61
2019-05-20T10:57:29.058Z,27.71
2019-05-20T10:58:29.108Z,27.47
2019-05-20T10:59:29.022Z,27.57
2019-05-20T11:00:29.123Z,27.60
2019-05-20T11:01:29.009Z,27.53
2019-05-20T11:02:31.240Z,27.48
2019-05-20T11:03:28.979Z,27.83
2019-05-20T11:04:29.055Z,28.25
2019-05-20T11:05:28.965Z,28.19
2019-05-20T11:06:29.064Z,27.66
2019-05-20T11:07:28.973Z,27.81
2019-05-20T11:08:28.976Z,27.48
2019-05-20T11:09:28.917Z,27.57
2019-05-20T11:10:28.990Z,27.90
2019-05-20T11:11:28.899Z,28.23
2019-05-20T11:12:28.932Z,28.03
2019-05-20T11:13:28.889Z,28.37
2019-05-20T11:14:28.911Z,28.37
2019-05-20T11:15:28.857Z,27.88
2019-05-20T11:16:28.923Z,28.43
2019-05-20T11:17:28.858Z,29.30
2019-05-20T11:18:28.834Z,29.71
2019-05-20T11:19:28.821Z,29.24
2019-05-20T11:20:28.849Z,27.72
2019-05-20T11:21:28.795Z,26.83
2019-05-20T11:22:28.896Z,26.85
2019-05-20T11:23:28.781Z,26.48
2019-05-20T11:24:28.779Z,27.13
2019-05-20T11:25:28.763Z,28.01
2019-05-20T11:26:28.790Z,28.40
2019-05-20T11:27:28.746Z,28.20
2019-05-20T11:28:28.811Z,27.50
2019-05-20T11:29:28.749Z,27.88
2019-05-20T11:30:28.813Z,28.49
2019-05-20T11:31:28.704Z,28.68
2019-05-20T11:32:28.780Z,28.78
2019-05-20T11:33:28.676Z,29.18
2019-05-20T11:34:28.763Z,29.50
2019-05-20T11:35:28.660Z,29.59
2019-05-20T11:36:28.758Z,29.77
2019-05-20T11:37:28.658Z,29.62
2019-05-20T11:38:28.671Z,29.65
2019-05-20T11:39:33.363Z,29.46
2019-05-20T11:40:29.707Z,29.37
2019-05-20T11:41:52.309Z,29.35
2019-05-20T11:42:29.610Z,29.43
2019-05-20T11:43:28.599Z,29.46
2019-05-20T11:44:28.562Z,29.98
2019-05-20T11:45:28.613Z,30.35
2019-05-20T11:46:28.541Z,30.52
2019-05-20T11:47:28.659Z,31.02
2019-05-20T11:48:28.520Z,31.00
2019-05-20T11:49:29.384Z,30.67
2019-05-20T11:50:28.497Z,29.98
2019-05-20T11:51:28.554Z,29.40
2019-05-20T11:52:28.487Z,28.75
2019-05-20T11:53:28.568Z,28.12
2019-05-20T11:54:28.484Z,27.41
2019-05-20T11:55:28.509Z,27.29
2019-05-20T11:56:28.433Z,28.03
2019-05-20T11:57:28.540Z,28.65
2019-05-20T11:58:28.419Z,29.05
2019-05-20T11:59:29.440Z,29.55
2019-05-20T12:00:28.403Z,30.06
2019-05-20T12:01:28.418Z,30.54
2019-05-20T12:02:28.396Z,30.55
2019-05-20T12:03:28.431Z,30.11
2019-05-20T12:04:28.363Z,30.11
2019-05-20T12:05:28.448Z,30.10
2019-05-20T12:06:28.336Z,30.43
2019-05-20T12:07:28.394Z,30.92
2019-05-20T12:08:28.311Z,30.61
2019-05-20T12:09:28.372Z,29.77
2019-05-20T12:10:28.294Z,29.98
2019-05-20T12:11:28.390Z,30.13
2019-05-20T12:12:28.307Z,30.32
2019-05-20T12:13:28.299Z,30.63
2019-05-20T12:14:28.250Z,30.43
2019-05-20T12:15:28.308Z,29.80
2019-05-20T12:16:28.241Z,30.24
2019-05-20T12:17:28.320Z,30.10
2019-05-20T12:18:28.224Z,30.65
2019-05-20T12:19:28.241Z,31.05
2019-05-20T12:20:28.195Z,31.30
2019-05-20T12:21:28.244Z,30.89
2019-05-20T12:22:28.166Z,31.20
2019-05-20T12:23:28.195Z,30.33
2019-05-20T12:24:28.147Z,29.32
2019-05-20T12:25:28.169Z,29.35
2019-05-20T12:26:28.125Z,29.92
2019-05-20T12:27:28.185Z,30.32
2019-05-20T12:28:28.119Z,29.89
2019-05-20T12:29:28.196Z,29.59
2019-05-20T12:30:28.098Z,30.03
2019-05-20T12:31:28.111Z,30.70
2019-05-20T12:32:28.101Z,31.32
2019-05-20T12:33:28.068Z,31.29
2019-05-20T12:34:28.042Z,31.69
2019-05-20T12:35:37.052Z,31.54
2019-05-20T12:36:28.020Z,31.60
2019-05-20T12:37:28.101Z,32.02
2019-05-20T12:38:28.020Z,31.95
2019-05-20T12:39:36.563Z,31.57
2019-05-20T12:40:27.981Z,31.63
2019-05-20T12:41:29.028Z,31.69
2019-05-20T12:42:27.957Z,32.05
2019-05-20T12:43:28.023Z,32.02
2019-05-20T12:44:27.941Z,32.22
2019-05-20T12:45:28.003Z,31.05
2019-05-20T12:46:27.918Z,30.89
2019-05-20T12:47:28.015Z,31.10
2019-05-20T12:48:27.911Z,30.21
2019-05-20T12:49:27.985Z,29.99
2019-05-20T12:50:27.877Z,29.40
2019-05-20T12:51:27.940Z,28.38
2019-05-20T12:52:27.859Z,27.47
2019-05-20T12:53:27.876Z,28.12